METARS
Date METAR Location Area
02/09/2014 LGY7 020030Z 00000KT 23/20 Q1005 Aegina Attica
02/09/2014 LGH5 020030Z 18001KT 24/18 Q1005 Ampelokipoi Attica
02/09/2014 LGS5 020030Z 15800KT 23/20 Q1002 Anavissos Attica
02/09/2014 LGO0 020030Z 31501KT 23/17 Q1006 Ano Liosia Attica
02/09/2014 LGB9 020030Z 20300KT 25/20 Q1007 Athens - Gazi Attica
02/09/2014 LGL5 020030Z 18002KT 22/18 Q1005 Ekali Attica
02/09/2014 LGS3 020030Z 13500KT 25/21 Q1005 Faliro Attica
02/09/2014 LGM3 020030Z 09002KT 25/21 Q1007 Hydra Attica
02/09/2014 LGI4 020100Z 00000KT 241/202 Q10054 Hydra Attica
01/09/2014 LGO2 012230Z 22503KT 18/15 Q1007 Imittos Attica
02/09/2014 LGT8 020030Z 00000KT 14/13 Q1007 Ippokratios Attica
26/08/2014 LG99 260930Z 31503KT 32/19 Q1014 Kantza Attica
01/09/2014 LG13 012045Z 00000KT 22/17 Q1008 Kifissia Attica
02/09/2014 LGD6 020030Z 31502KT 24/21 Q1005 Lavrio Attica
02/09/2014 LGK0 020030Z 09000KT 23/18 Q1006 Marousi Attica
31/08/2014 LG00 310140Z 33002KT 20/12 Q1012 Marousi (Anavrita) Attica
02/09/2014 LGR0 020030Z 20300KT 25/21 Q1006 Nea Smirni Attica
01/09/2014 LGM8 012230Z 20300KT 26/20 Q1008 Neos Kosmos Attica
02/09/2014 LGA3 020110Z 00000KT 20/16 Q1006 Pallini - Kantza 2 Attica
02/09/2014 LGK3 020030Z 24804KT 17/15 Q1007 Parnitha 1230 EAA Attica
02/09/2014 LGT6 020030Z 00000KT 25/18 Q1007 Patissia Attica
02/09/2014 LG67 020100Z 00000KT 217/177 Q10065 Penteli Attica
02/09/2014 LGX9 020030Z 33802KT 21/18 Q1004 Penteli Attica
02/09/2014 LGU0 020030Z 24803KT 25/19 Q1007 Peristeri Attica
31/08/2014 LGY6 311830Z 02303KT 25/16 Q1011 Porto Rafti Attica
02/09/2014 LG96 020030Z 00000KT 23/18 Q1006 Psychico Attica
02/09/2014 LGZ0 020030Z 27004KT 21/18 Q1006 Rafina Attica
02/09/2014 LGG2 020030Z 29303KT 22/17 Q1006 Spata Attica
30/08/2014 LGS6 301130Z 09003KT 30/18 Q1013 Spetses Attica
02/09/2014 LGZ2 020030Z 02301KT 24/20 Q1006 Vari Attica
06/08/2014 LGR6 061330Z 22511KT 26/17 Q1004 Vilia Attica
02/09/2014 LG74 012100Z 00000G31104KT 254/179 Q10067 Ymittos Attica
02/09/2014 LGG1 020100Z 00000KT 216/182 Q210 Kalivia Thorikou Attica E
02/09/2014 LG45 020030Z 24801KT 21/18 Q1008 Markopoulo Attica E
02/09/2014 LG72 020110Z 00000KT 222/198 Q10032 Keratea Attica SE
15/08/2014 LGW4 151530Z 13504KT 31/13 Q1007 Ag. Ioannis Sfakion Crete
02/09/2014 LGJ9 020030Z 22501KT 24/18 Q1007 Aghios Nikolaos Crete
02/09/2014 LGT4 020030Z 15803KT 19/15 Q1007 Alikianos Crete
02/09/2014 LGB6 020030Z 22503KT 20/09 Q1005 Anogeia Crete
18/08/2014 LGZ6 180730Z 00010KT 22/14 Q1010 Askyfou Crete
02/09/2014 LG25 020030Z 22503KT 23/18 Q1006 Chania Crete
02/09/2014 LGN3 020030Z 22500KT 23/19 Q1007 Chania Center Crete
02/09/2014 LG61 020030Z 22504KT 23/19 Q1007 Cost - Irakleio Crete
02/09/2014 LGL9 020030Z 22502KT 25/22 Q1006 Falasarna Crete
02/09/2014 LGL1 020030Z 00000KT 21/15 Q1006 Fourfouras Crete
30/08/2014 LGD4 300730Z 33807KT 26/15 Q1012 Fragmapotamon - Rethymno Crete
02/09/2014 LG30 020030Z 20303KT 21/18 Q1008 Heraklion - Knossos Crete
07/08/2014 LG95 070330Z 04503KT 25/21 Q1005 Ierapetra Crete
02/09/2014 LGP0 020030Z 31503KT 25/18 Q1006 Lentas Hrakleion Crete
02/09/2014 LGD7 020030Z 27001KT 19/17 Q1007 Metaxochori - Heraklion Crete
02/09/2014 LGI2 020030Z 06802KT 22/19 Q1007 Mires Crete
02/09/2014 LG36 020030Z 29301KT 24/18 Q1006 Paleochora Crete
02/09/2014 LG8A 020100Z 2921728G2592KT 208/183 Q10014 Pirathi Heraklion Crete
02/09/2014 LG58 020030Z 18004KT 24/19 Q1006 Rethymno Crete
02/09/2014 LGT2 020030Z 00000KT 23/19 Q1006 Rethymno - Plakia Crete
02/09/2014 LGY1 020030Z 00000KT 21/08 Q1008 Samaria Crete
02/09/2014 LGB4 020030Z 00000KT 17/06 Q1007 Samaria Crete
02/09/2014 LGM2 020030Z 24800KT 22/19 Q1007 Sitia Crete
02/09/2014 LG75 020030Z 06803KT 20/15 Q1008 Spili - Rethymnon Crete
02/09/2014 LG50 020030Z 00000KT 12/10 Q1008 Tzermiado Lasithi Crete
02/09/2014 LG70 020030Z 00000KT 19/17 Q1006 Vrysses Crete
02/09/2014 LGT5 020030Z 04503KT 22/19 Q1006 Amorgos Cyclades
02/09/2014 LGN6 020030Z 02300KT 23/19 Q1007 Andros Cyclades
02/09/2014 LGS7 020030Z 04502KT 23/19 Q1006 Donoussa Cyclades
02/09/2014 LGI0 020030Z 13501KT 24/22 Q1007 Ios Cyclades
01/09/2014 LGP2 011530Z 33802KT 24/17 Q1010 Ioulida - Kea Cyclades
02/09/2014 LGP5 020030Z 00000KT 23/21 Q1006 Iraklia Cyclades
29/08/2014 LGE3 290430Z 00006G18KT 25/21 Q1012 Kea Cyclades
02/09/2014 LGX8 020030Z 24804KT 25/22 Q1006 Koufonissia Cyclades
02/09/2014 LGS0 020030Z 24805KT 24/21 Q1007 Milos Cyclades
02/09/2014 LG66 020030Z 00000KT 24/20 Q1006 Mykonos Cyclades
02/09/2014 LGM0 020030Z 13503KT 24/20 Q1007 Naxos Cyclades
02/09/2014 LGV3 020030Z 04500KT 17/15 Q1005 Naxos - Apiranthos Cyclades
30/08/2014 LGT0 301230Z 31509KT 23/19 Q1013 Naxos - Apollonas Cyclades
02/09/2014 LGU1 020030Z 00000KT 21/18 Q1007 Naxos - Damarionas Cyclades
01/09/2014 LGU2 010830Z 02307KT 22/16 Q1009 Naxos - Koronos Cyclades
12/08/2014 LGN7 120730Z 27004KT 25/10 Q1013 Naxos - Kynidaros Cyclades
02/09/2014 LGW1 020030Z 11302KT 23/18 Q1007 Naxos - Melanes Cyclades
31/08/2014 LGO7 311330Z 00022KT 25/20 Q1010 Naxos - Mikri Vigla Cyclades
02/09/2014 LG02 020030Z 13505KT 24/22 Q1007 Paros Cyclades
02/09/2014 LGX5 020030Z 22509KT 24/22 Q1005 Santorini Cyclades
02/09/2014 LGX7 020030Z 24803KT 23/21 Q1006 Schinoussa Cyclades
07/07/2014 LG07 070630Z 00000KT 255/97 Q10099 Tinos Cyclades
30/08/2014 LGB8 301230Z 00016G30KT 25/18 Q1012 Tinos NOA Cyclades
02/09/2014 LGAB 020030Z 22509KT 21/17 Q1005 Emponas - Rhodes Dodecanese
02/09/2014 LGG6 020030Z 29303KT 23/20 Q1007 Kalymnos Dodecanese
02/09/2014 LGAC 020030Z 31511KT 24/20 Q1005 Kattavia - Rhodes Dodecanese
02/09/2014 LGAA 020030Z 15802KT 25/18 Q1006 Lindos - Rhodes Dodecanese
02/09/2014 LG65 020030Z 13500KT 23/19 Q1007 Patmos Dodecanese
02/09/2014 LGS9 020030Z 27006KT 25/21 Q1007 Rhodes Dodecanese
02/09/2014 LGM5 020030Z 27003KT 25/22 Q1006 Kasos Dodecanisa
01/09/2014 LGX1 011130Z 29306KT 28/21 Q1007 Kos Dodekanissa
02/09/2014 LG4A 020030Z 31502KT 21/18 Q1006 Chios East Aegean
02/09/2014 LGT1 020030Z 00000KT 23/18 Q1005 Fournoi East Aegean
02/09/2014 LGI9 020030Z 18003KT 19/10 Q1007 Ikaria East Aegean
02/09/2014 LGI5 020030Z 00000KT 21/18 Q1006 Lemnos East Aegean
02/09/2014 LGI6 020030Z 00000KT 21/17 Q1006 Lesvos East Aegean
01/09/2014 LGJ3 011630Z 33800KT 28/19 Q1008 Lesvos - Thermi East Aegean
02/09/2014 LGZ7 020030Z 31503KT 22/19 Q1006 Mantamados East Aegean
02/09/2014 LGY5 020030Z 11302KT 20/16 Q1008 Molyvos East Aegean
02/09/2014 LGF1 020030Z 20303KT 20/18 Q1006 Samos East Aegean
02/09/2014 LGW7 020030Z 06803KT 23/19 Q1002 Akrotirio Paksimada Evia
02/09/2014 LGO3 020030Z 06806KT 24/17 Q1003 Chalkida Evia
01/09/2014 LGR5 012330Z 29304KT 21/14 Q1006 Kavodoro Evia
09/08/2014 LGY0 090700Z 11300KT 09/05 Q1034 Krieza Evia
02/09/2014 LGX0 020030Z 29300KT 20/18 Q1007 Kymi Evia
25/08/2014 LGT7 251000Z 27004KT 09/07 Q1011 Setta Evia
02/09/2014 LG81 020030Z 04500KT 20/15 Q1005 Steni Evia
31/08/2014 LGC4 311730Z 04510KT 24/17 Q1011 Styra Evia
02/09/2014 LGD3 020030Z 00000KT 22/20 Q1007 Zarakes Evia
02/09/2014 LGP6 020030Z 22502KT -RA 21/18 Q1003 Agia Kyriaki Ioanninon Hepirus
28/08/2014 LGO1 282330Z 31500KT 23/15 Q1013 Aridaia Hepirus
02/09/2014 LGD2 020030Z 13506KT 25/19 Q1003 Arta - Kompoti Hepirus
29/08/2014 LG38 292230Z 00001KT 27/18 Q1014 Arta - Vlacherna Hepirus
01/09/2014 LGE4 010730Z 15801KT 22/16 Q1009 Aspraggeloi Hepirus
01/09/2014 LGI3 012330Z 20306G17KT RA 21/18 Q1003 Derviziana Hepirus
02/09/2014 LGP4 020030Z 11303KT +RA 18/16 Q1002 Dodoni Hepirus
02/09/2014 LGL8 021430Z 02304KT 24/07 Q1015 Grammos Hepirus
02/09/2014 LG43 020030Z 15806KT -RA 23/19 Q1001 Igoumenitsa Hepirus
02/09/2014 LG49 020030Z 22501KT RA 19/19 Q1002 Ioannina Anatoli Hepirus
02/09/2014 LGK1 020030Z 15806KT -RA 24/21 Q1003 Kanali, Preveza Hepirus
02/09/2014 LGE0 020030Z 18009G21KT 20/15 Q1003 Katarraktis - Arta Hepirus
28/08/2014 LGO5 281030Z 11302KT 29/11 Q1008 Kerasovo Konitsa Hepirus
02/09/2014 LG3A 020030Z 13503KT -RA 23/15 Q1002 Konitsa Hepirus
02/09/2014 LGO8 020030Z 20302KT 16/12 Q1002 Metsovo Hepirus
02/09/2014 LGK6 020030Z 13501KT RA 19/14 Q1003 Papigo Hepirus
01/09/2014 LGF6 010530Z 20300KT 19/15 Q1009 Paramythia Hepirus
02/09/2014 LGK9 020030Z 22508KT RA 24/22 Q1004 Parga Hepirus
01/09/2014 LGK7 012030Z 13500KT 20/18 Q1005 Pesta Hepirus
29/08/2014 LGY9 291930Z 00000KT 18/15 Q 999 Plikati Ioanninon Hepirus
02/09/2014 LGP1 020030Z 02301KT 19/15 Q1003 Pramanta Hepirus
01/09/2014 LGK2 012230Z 15802KT 18/16 Q1010 Theodoriana, Arta Hepirus
24/08/2014 LGD0 241330Z 24802KT 29/14 Q1010 Tristeno - Ioannina Hepirus
02/09/2014 LGM4 020030Z 15806G20KT RA 20/18 Q1001 Tyria Hepirus
02/09/2014 LGR8 020030Z 20300KT 20/16 Q1003 Vourgareli Artas Hepirus
01/09/2014 LGN9 012230Z 00000KT 12/12 Q1007 Vovoussa Hepirus
02/09/2014 LGN0 020030Z 31500KT -RA 19/17 Q1001 Zitsa Hepirus
02/09/2014 LGJ2 020030Z 20307KT RA 22/20 Q1002 Corfu - Gouvia Ionio
02/09/2014 LGB0 020030Z 15805KT 23/21 Q1004 Ithaki Ionio
02/09/2014 LGI7 020030Z 18010KT -RA 25/23 Q1004 Lefkada Ionio
01/09/2014 LGN1 012030Z 29301KT -RA 26/22 Q1003 Paxoi Ionio
02/09/2014 LGN4 020030Z 00000KT -RA 23/20 Q1003 Zakynthos Ionio
02/09/2014 LGG9 020030Z 11300KT 19/16 Q1003 Amynteo Macedonia
02/09/2014 LG33 020030Z 09006KT 20/14 Q1005 Chalkidiki - Polygyros Macedonia
29/08/2014 LGJ1 291330Z 15800KT 27/19 Q1017 Chalkidiki - Stratoni Macedonia
02/09/2014 LGZ5 020030Z 27002KT 16/15 Q1008 Didymoteicho Macedonia
01/09/2014 LG55 010930Z 13505KT 29/20 Q1008 Dion Macedonia
02/09/2014 LGU8 020030Z 00002KT 21/16 Q1007 Doxato - Drama Macedonia
02/09/2014 LGH3 020050Z 07200KT 17/15 Q1007 Drama Macedonia
02/09/2014 LGH6 020030Z 00000KT 18/16 Q1007 Drama 2 Macedonia
26/08/2014 LGY3 260930Z 11304KT 28/18 Q1015 Eleutheroupoli Macedonia
27/08/2014 LGJ6 272050Z 15916G27KT 02/02 Q1009 Falakro Macedonia
22/08/2014 LG63 221230Z 00006KT -RA 23/20 Q1006 Florina Macedonia
01/09/2014 LGZ8 011530Z 11310KT 27/19 Q1007 Fotolivos Macedonia
02/09/2014 LG73 020030Z 00000KT 22/20 Q1005 Giannitsa Macedonia
02/09/2014 LGF2 020030Z 22500KT 16/14 Q1004 Grevena Macedonia
02/09/2014 LGO4 020030Z 06805KT 18/17 Q1007 Hmathia - Rizomata Macedonia
02/09/2014 LG93 020030Z 11309KT 08/08 Q1006 Kaimaktsalan Macedonia
27/08/2014 LGN8 272050Z 19217G43KT 32/29 Q979 Kartakla - Falakro Macedonia
02/09/2014 LGO9 020030Z 00000KT 22/18 Q1006 Kassandreia (Xalkidiki) Macedonia
02/09/2014 LG27 020050Z 04502KT 23/16 Q1007 Kavala - Dexameni Macedonia
05/08/2014 LGA2 052147Z 00000KT 01/00 Q1022 Kavala - Eleftheroupoli Macedonia
02/09/2014 LG42 020030Z 09001KT 20/17 Q1005 Kilkis Macedonia
01/09/2014 LGW8 010230Z 13500KT 19/16 Q1011 Kimisi Macedonia
02/09/2014 LGJ4 020030Z 00000KT 17/14 Q1008 Kozani - Ardassa Macedonia
02/09/2014 LGP3 020030Z 09002KT 12/11 Q1007 Lailias - Serres Macedonia
02/09/2014 LGZ9 020030Z 27000KT 16/14 Q1005 Mavropigi Macedonia
02/09/2014 LG40 020030Z 33800KT 20/17 Q1007 Naousa Macedonia
02/09/2014 LGZ4 020030Z 09000KT 23/17 Q1006 Neos Marmaras Macedonia
02/09/2014 LG48 020030Z 06802KT 16/13 Q 0 Nevrokopi Drama Macedonia
02/09/2014 LGS4 020030Z 00000KT 18/14 Q1004 Notio Pedio - Eordea Macedonia
02/09/2014 LGW0 020030Z 00000KT 15/14 Q1009 Paranesti Macedonia
02/09/2014 LG26 020030Z 00000KT 16/14 Q1003 Ptolemaida Macedonia
02/09/2014 LG87 020030Z 13504KT 12/11 Q1005 Seli Ski Center Macedonia
02/09/2014 LGW6 020030Z 00000KT 20/17 Q1008 Serres Macedonia
02/09/2014 LGD9 020030Z 00000KT 21/18 Q1007 Serres - Kerkini Macedonia
02/09/2014 LG14 020100Z 00000KT 186/157 Q10092 Serres - Proti Macedonia
07/08/2014 LGY8 071419Z 31505KT 9999 SCT036 10/00 Q1010 Thassos Macedonia
02/09/2014 LGR9 020030Z 00000KT 24/19 Q1006 Thessaloniki Macedonia
02/09/2014 LGF0 020030Z 00000KT 17/15 Q1005 Variko Macedonia
02/09/2014 LG82 020030Z 15803KT 12/10 Q1003 Vassilitsa Macedonia
02/09/2014 LGC2 020030Z 13501KT 21/17 Q1005 Vatopedi - Athos Macedonia
02/09/2014 LGE9 020030Z 04503KT 21/13 Q1007 Vegoritida Macedonia
02/09/2014 LGE5 020030Z 13500KT 20/18 Q1004 Veroia Macedonia
02/09/2014 LG98 020030Z 06803KT 16/13 Q1003 Vlasti - Kozani Macedonia
02/09/2014 LGF5 020101Z 07900KT 16/13 Q1007 Vounochori - Kavala Macedonia
02/09/2014 LGU5 020030Z 00000KT 23/19 Q1005 Agioi Theodoroi Peloponissos
02/09/2014 LGU7 020030Z 00000KT 17/15 Q1006 Alagonia - Messinia Peloponissos
02/09/2014 LG52 020030Z 13508KT 25/21 Q1004 Amaliada Peloponissos
01/09/2014 LG77 010430Z 00000KT 18/15 Q1009 Andritsaina Peloponissos
02/09/2014 LGU6 020030Z 04500KT 22/19 Q1007 Arfara - Messinia Peloponissos
02/09/2014 LGT3 020030Z 22501KT 21/18 Q1006 Argos Peloponissos
17/08/2014 LGA8 172100Z 00000KT 00/00 Q 0 Chalandritsa Peloponissos
01/09/2014 LGV0 010930Z 06802KT 28/20 Q1008 Derveni Peloponissos
28/08/2014 LGK4 280630Z 15801KT -RA 03/02 Q1021 Elati Peloponissos
02/09/2014 LGC3 020030Z 09003KT 20/17 Q1004 Foloi - Ilia Peloponissos
02/09/2014 LGX6 020030Z 04503KT 22/17 Q1007 Geraki Peloponissos
13/08/2014 LGB7 130230Z 00000KT 22/17 Q1011 Ilia - Vartholomio Peloponissos
02/09/2014 LG85 020030Z 11306KT 24/20 Q1007 Isthmos Peloponissos
01/09/2014 LG6A 012230Z 02303KT 25/19 Q1008 Kalamata Peloponissos
02/09/2014 LGV7 020030Z 00000KT 16/14 Q1006 Kalavryta Peloponissos
02/09/2014 LGZ3 020030Z 06802KT 23/20 Q1004 Kardamyli Peloponissos
02/09/2014 LGJ5 020030Z 15819KT 25/22 Q1004 Katakolo Peloponissos
02/09/2014 LGP7 020030Z 15801KT 17/15 Q1005 008 Kato Vlassia Peloponissos
27/08/2014 LGB2 272000Z 20301KT 27/23 Q1011 Katoachaia Peloponissos
27/08/2014 LGB5 271730Z 29302KT 25/22 Q1008 Kavomalias Peloponissos
02/09/2014 LGM7 020030Z 11300KT 23/20 Q1005 Kranidi Peloponissos
02/09/2014 LGV1 020030Z 18004KT 26/21 Q1006 Kyparissia Peloponissos
02/09/2014 LGW9 020030Z 15803KT 18/15 Q1005 Lagadia Peloponissos
02/09/2014 LG92 020030Z 18003KT 25/21 Q1003 Lappa-Larissos-Achaia Peloponissos
07/08/2014 LG91 070630Z 00000KT 21/15 Q1012 Lousika-Olenias-Achaia Peloponissos
02/09/2014 LGV4 020030Z 27002KT 21/17 Q1007 Lykochia Peloponissos
02/09/2014 LGG5 020030Z 04501KT 18/17 Q1006 Megalopoli Peloponissos
02/09/2014 LGV2 020030Z 06801KT 21/18 Q1004 Messinia - Kopanaki Peloponissos
02/09/2014 LGF8 020030Z 24801KT 22/19 Q1006 Molaoi Peloponissos
02/09/2014 LG56 020030Z 24808KT 26/20 Q1006 Monemvasia Peloponissos
02/09/2014 LGE1 020030Z 15800KT 17/16 Q1005 Nemea Peloponissos
02/09/2014 LGD5 020030Z 20300KT 22/18 Q1005 Oleni - Ilia Peloponissos
02/09/2014 LGB3 020030Z 09003KT 23/19 Q1005 Olympia Peloponissos
02/09/2014 LGV6 020030Z 15803KT 14/11 Q1005 Panachaiko Oros Peloponissos
02/09/2014 LGZ1 020030Z 11303KT 24/17 Q1004 Patra Peloponissos
31/08/2014 LG79 310000Z 00000G31104KT 241/185 Q10137 Patra - Agia Peloponissos
01/09/2014 LG71 011950Z 202864G4320KT 257/194 Q10071 Patra - Drosia Peloponissos
02/09/2014 LG84 020030Z 06802KT 25/20 Q1004 Patra - Port Peloponissos
02/09/2014 LG59 020030Z 11305KT -RA 24/20 Q1004 Pirgos Peloponissos
02/09/2014 LGH8 020030Z 06803KT 24/20 Q1005 Rio Peloponissos
02/09/2014 LGT9 020030Z 09002KT 23/15 Q1004 Romanos - Patra Peloponissos
02/09/2014 LGA0 020030Z 18003KT 25/20 Q1003 Sagaiika Peloponissos
02/09/2014 LGF7 020030Z 33800KT 19/16 Q1007 Sparti Peloponissos
02/09/2014 LGS2 020030Z 00000KT 16/14 Q1006 Stemnitsa Peloponissos
02/09/2014 LGR1 020030Z 22505KT 17/12 Q1004 Trikala Korinthias Peloponissos
02/09/2014 LG83 020030Z 00000KT 15/14 Q1007 Tripoli Peloponissos
02/09/2014 LGU9 020030Z 22500KT 13/13 Q1006 Vytina Peloponissos
02/09/2014 LG86 020030Z 13501KT 24/20 Q1005 Zaxaro Peloponissos
02/09/2014 LGN2 020030Z 06804KT 24/19 Q1008 Alonissos Sporades
02/09/2014 LGI1 020030Z 33805KT 23/16 Q1006 Skyros Sporades
02/09/2014 LGH9 020030Z 11305KT 25/20 Q1006 Agrinio Sterea Ellada
02/09/2014 LGC7 020030Z 13505KT 26/21 Q1004 Aitoliko Sterea Ellada
02/09/2014 LG29 020030Z 00000KT 19/14 Q1005 Amfiklia Sterea Ellada
31/08/2014 LGH1 310600Z 00000G31104KT 217/120 Q10142 Amfiklia 2 Sterea Ellada
02/09/2014 LGG8 020030Z 13504KT 22/20 Q1007 Antikira Sterea Ellada
02/09/2014 LG97 020110Z 00000KT 19/13 Q1004 Arachova Sterea Ellada
02/09/2014 LGC5 020030Z 27003KT 18/11 Q1006 Arahova Sterea Ellada
02/09/2014 LGH0 020030Z 22502KT 20/16 Q1004 Avlida Sterea Ellada
02/09/2014 LGR2 020030Z 13500KT 19/16 Q1005 Dam of Mornos Sterea Ellada
02/09/2014 LGR3 020030Z 00000KT 18/14 Q1005 Diakopi of Lidoriki Sterea Ellada
02/09/2014 LGW5 020030Z 18003KT 19/16 Q1004 Domokos Sterea Ellada
14/08/2014 LG21 141323Z 24804KT 29/15 Q1014 Evia - Chalkida Sterea Ellada
25/08/2014 LGY4 252130Z 04502KT 28/17 Q1013 Galaxidi Sterea Ellada
02/09/2014 LGC8 020100Z 00000KT +RA 231/208 Q10032 Gavalou - Aitol/nia Sterea Ellada
02/09/2014 LGJ7 020030Z 18004KT 23/19 Q1007 Kaparelli Sterea Ellada
02/09/2014 LGC9 020030Z 24800KT 12/11 Q1007 Karpenisi Sterea Ellada
02/09/2014 LGP9 020030Z 20304KT 22/17 Q1004 Kleidi Viotias Sterea Ellada
02/09/2014 LGR4 020030Z 27000KT 17/15 Q1005 Koniakos of Lidoriki Sterea Ellada
02/09/2014 LG5A 020030Z 06801KT 22/18 Q1005 Kopaida Sterea Ellada
01/09/2014 LGV9 012230Z 13501KT 23/18 Q1005 Lamia Sterea Ellada
01/09/2014 LGJ8 012230Z 22500KT 19/15 Q1004 Lefkochori Sterea Ellada
02/09/2014 LGI8 020030Z 02301KT 18/15 Q1006 Livadeia Sterea Ellada
02/09/2014 LGE7 020030Z 24801KT 18/16 Q1003 Makrakomi Sterea Ellada
02/09/2014 LGA6 020030Z 27001KT 14/12 Q1004 Mavrolithari - Vardousia Sterea Ellada
02/09/2014 LGK8 020030Z 04502KT 16/13 Q1003 Myriki Sterea Ellada
02/09/2014 LGG4 020030Z 09000KT 17/14 Q1005 Orini Nafpaktia Sterea Ellada
01/09/2014 LGA4 010700Z 09009KT -SN 02/M02 Q1009 Parnassos Sterea Ellada
27/08/2014 LGF9 271430Z 00000KT 03/02 Q1011 Parnassos1950 Sterea Ellada
02/09/2014 LGL0 020030Z 15801KT 21/14 Q1005 Polydroso Sterea Ellada
07/08/2014 LGR7 071230Z 04508KT 11/09 Q1025 Prasino - Viotia Sterea Ellada
02/09/2014 LG69 020030Z 00000KT 20/15 Q1006 Tanagra Sterea Ellada
02/09/2014 LGO6 020030Z 06801KT 24/20 Q1005 Theologos Sterea Ellada
02/09/2014 LG15 020112Z 08400KT 26/03 Q1005 Kamara Thes/niki Thes/niki
13/08/2014 LGA5 132130Z 24800KT 17/16 Q1011 Lagadas Thes/niki
24/08/2014 LG11 240730Z 12901KT 10/06 Q1006 West Thes/niki Thes/niki
31/08/2014 LGV5 310530Z 15801KT 19/17 Q1012 Tsamantas Thesprotia
02/09/2014 LGL4 020030Z 06805KT 18/14 Q1004 Gardiki Thessalia
02/09/2014 LGW3 020030Z 09002KT 22/16 Q1003 Kalabaka Thessalia
02/09/2014 LG2A 020030Z 22502KT 18/16 Q1005 Karditsa Thessalia
02/09/2014 LGL6 020030Z 06800KT 23/16 Q1005 Larissa Thessalia
02/09/2014 LG41 020050Z 0451728G3456KT 230/156 Q10034 Larissa Thessalia
02/09/2014 LGU3 012100Z 00000G2592KT 243/191 Q10043 Larissa Thessalia
02/09/2014 LGS8 020030Z 04503KT 22/16 Q1005 Larissa - Agia Thessalia
28/08/2014 LGL7 282130Z 24812KT 16/05 Q1014 Limni Plastira Thessalia
26/08/2014 LGU4 260700Z 29304KT 04/M07 Q1013 Olympos Thessalia
02/09/2014 LG7A 020105Z 00000KT 222/160 Q10042 Pedio Areos Volou Thessalia
29/08/2014 LGE2 291130Z 09003KT 22/15 Q1013 Pertouli Thessalia
02/09/2014 LGY2 020030Z 13503KT 21/15 Q1005 Portaria - Pelio Thessalia
02/09/2014 LG80 020030Z 27003KT 24/18 Q1008 Skopelos - Sporades Thessalia
02/09/2014 LG24 020030Z 11301KT 25/19 Q1005 Sporades - Skiathos Thessalia
02/09/2014 LG57 020030Z 18000KT 21/17 Q1004 Trikala Thessalia
02/09/2014 LG51 020030Z 04503KT 23/18 Q1004 Volos Thessalia
02/09/2014 LGG3 020030Z 24802KT 20/15 Q1008 Zagora EAA Thessalia
01/09/2014 LGD8 012030Z 04503KT 22/17 Q1009 Alexandroupolis Thraki
02/09/2014 LGM9 020030Z 11302KT 19/16 Q1006 Imeros Thraki
02/09/2014 LG35 020110Z 02602KT 20/16 Q1007 Komotini Thraki
02/09/2014 LGL2 020030Z 22503KT 19/16 Q1008 Metaxades - Evros Thraki
02/09/2014 LG31 020030Z 04500KT 16/14 Q1007 Orestiada Thraki
02/09/2014 LGC1 020030Z 06801KT 22/17 Q1007 Samothraki Thraki
02/09/2014 LGC6 020030Z 04500KT 19/16 Q1008 Xanthi Thraki
www.meteorologia.gr